Terminal Aerodrome Forecast
Issued by NWS Brownsville, TX

Home | Current Version | Previous Version | Text Only | Print | Product List | Glossary On
Versions: 1 2 3 4 5 6 7 8 9 10 11 12 13
000
FTUS44 KBRO 211727
TAFBRO
TAF
KBRO 211727Z 2118/2218 15013G18KT P6SM SCT040
     FM220100 15008KT P6SM SCT030
      TEMPO 2210/2214 1SM MIFG VV001=

USA.gov is the U.S. government's official web portal to all federal, state and local government web resources and services.